Terminal Aerodrome Forecast
Issued by NWS

Home | Current Version | Previous Version | Graphics & Text | Print | Product List | Glossary On
Versions: 1 2 3 4 5 6 7 8 9 10 11 12 13 14 15 16 17 18 19
334
FTUS43 KOAX 211120
TAFCDR
TAF
KCDR 211120Z 2112/2212 17011KT P6SM OVC016
      TEMPO 2112/2115 4SM BR OVC008
     FM211700 16016G26KT P6SM BKN040
     FM212000 16025G35KT P6SM SCT080
     FM220300 15024G32KT P6SM SCT015 WS020/16045KT
     FM220500 16025KT P6SM OVC008 WS010/16025KT=

USA.gov is the U.S. government's official web portal to all federal, state and local government web resources and services.